Orwell, New York
Current Conditions -  °F | °C
As of 2:54 AM on Saturday 25 Oct 2014 (Local Time) from KFZY Reporting Station
Broken Clouds Broken Clouds  
Wind Chill: 42°   Ceiling: 5500
Heat Index: 46°   Visibility: 7mi
Dew Point: 42°   Wind: 7mph
Humidity: 86%   Direction: 220°SW
Pressure: 29.88"   Gusts: NA
Location:  43.57°N, 76°W
Report Text: KFZY 250654Z AUTO 22006KT 7SM BKN055 08/06 A2988 RMK AO2 SLP120 T00780056
Loading
Personal Weather Stations






























Interactive Weather Map
Tropical Storm Tracking
New forecast layout! Learn more

10-Day Weather Forecast

Advertisements
Track Severe Weather on mobile